sensor_id;sensor_type;location;lat;lon;timestamp;P1;durP1;ratioP1;P2;durP2;ratioP2
4434;SDS011;46552;52.150;8.428;2023-04-01T00:02:04;8.83;;;5.13;;
4434;SDS011;46552;52.150;8.428;2023-04-01T00:04:31;11.40;;;6.27;;
4434;SDS011;46552;52.150;8.428;2023-04-01T00:06:58;8.50;;;5.30;;
4434;SDS011;46552;52.150;8.428;2023-04-01T00:09:26;7.63;;;4.40;;
4434;SDS011;46552;52.150;8.428;2023-04-01T00:11:54;9.93;;;4.60;;
4434;SDS011;46552;52.150;8.428;2023-04-01T00:14:22;9.80;;;5.47;;
4434;SDS011;46552;52.150;8.428;2023-04-01T00:16:49;8.10;;;4.20;;
4434;SDS011;46552;52.150;8.428;2023-04-01T00:19:18;6.70;;;4.07;;
4434;SDS011;46552;52.150;8.428;2023-04-01T00:21:46;7.73;;;4.20;;
4434;SDS011;46552;52.150;8.428;2023-04-01T00:24:14;7.90;;;4.70;;
4434;SDS011;46552;52.150;8.428;2023-04-01T00:26:42;6.50;;;3.33;;
4434;SDS011;46552;52.150;8.428;2023-04-01T00:29:09;14.10;;;3.70;;
4434;SDS011;46552;52.150;8.428;2023-04-01T00:31:38;6.90;;;3.73;;
4434;SDS011;46552;52.150;8.428;2023-04-01T00:34:05;6.67;;;3.50;;
4434;SDS011;46552;52.150;8.428;2023-04-01T00:36:34;9.73;;;3.30;;
4434;SDS011;46552;52.150;8.428;2023-04-01T00:39:01;5.83;;;3.00;;
4434;SDS011;46552;52.150;8.428;2023-04-01T00:41:29;5.20;;;2.80;;
4434;SDS011;46552;52.150;8.428;2023-04-01T00:44:11;7.73;;;3.03;;
4434;SDS011;46552;52.150;8.428;2023-04-01T00:46:43;7.50;;;2.77;;
4434;SDS011;46552;52.150;8.428;2023-04-01T00:49:10;7.23;;;2.10;;
4434;SDS011;46552;52.150;8.428;2023-04-01T00:51:43;6.13;;;2.60;;
4434;SDS011;46552;52.150;8.428;2023-04-01T00:54:13;11.63;;;2.13;;
4434;SDS011;46552;52.150;8.428;2023-04-01T00:56:41;7.00;;;3.20;;
4434;SDS011;46552;52.150;8.428;2023-04-01T00:59:14;6.83;;;2.67;;
4434;SDS011;46552;52.150;8.428;2023-04-01T01:01:45;4.80;;;2.90;;
4434;SDS011;46552;52.150;8.428;2023-04-01T01:04:22;6.50;;;2.93;;
4434;SDS011;46552;52.150;8.428;2023-04-01T01:06:52;3.97;;;2.47;;
4434;SDS011;46552;52.150;8.428;2023-04-01T01:09:26;7.47;;;3.07;;
4434;SDS011;46552;52.150;8.428;2023-04-01T01:12:00;9.63;;;2.60;;
4434;SDS011;46552;52.150;8.428;2023-04-01T01:14:36;7.03;;;2.43;;
4434;SDS011;46552;52.150;8.428;2023-04-01T01:17:17;5.13;;;2.33;;
4434;SDS011;46552;52.150;8.428;2023-04-01T01:20:04;11.30;;;3.03;;
4434;SDS011;46552;52.150;8.428;2023-04-01T01:23:06;6.10;;;2.53;;
4434;SDS011;46552;52.150;8.428;2023-04-01T01:25:50;11.37;;;3.00;;
4434;SDS011;46552;52.150;8.428;2023-04-01T01:28:34;5.80;;;2.40;;
4434;SDS011;46552;52.150;8.428;2023-04-01T01:31:14;4.20;;;2.27;;
4434;SDS011;46552;52.150;8.428;2023-04-01T01:33:50;4.80;;;2.40;;
4434;SDS011;46552;52.150;8.428;2023-04-01T01:36:32;5.73;;;1.97;;
4434;SDS011;46552;52.150;8.428;2023-04-01T01:39:01;4.30;;;2.63;;
4434;SDS011;46552;52.150;8.428;2023-04-01T01:41:30;9.67;;;2.60;;
4434;SDS011;46552;52.150;8.428;2023-04-01T01:44:01;4.07;;;2.10;;
4434;SDS011;46552;52.150;8.428;2023-04-01T01:46:31;5.40;;;2.33;;
4434;SDS011;46552;52.150;8.428;2023-04-01T01:48:59;8.53;;;2.47;;
4434;SDS011;46552;52.150;8.428;2023-04-01T01:51:27;4.70;;;2.27;;
4434;SDS011;46552;52.150;8.428;2023-04-01T01:53:57;3.67;;;2.10;;
4434;SDS011;46552;52.150;8.428;2023-04-01T01:56:26;6.90;;;2.67;;
4434;SDS011;46552;52.150;8.428;2023-04-01T01:58:57;10.33;;;1.80;;
4434;SDS011;46552;52.150;8.428;2023-04-01T02:01:29;9.57;;;3.27;;
4434;SDS011;46552;52.150;8.428;2023-04-01T02:04:00;4.30;;;2.83;;
4434;SDS011;46552;52.150;8.428;2023-04-01T02:06:29;8.33;;;2.43;;
4434;SDS011;46552;52.150;8.428;2023-04-01T02:09:00;6.80;;;2.57;;
4434;SDS011;46552;52.150;8.428;2023-04-01T02:11:30;5.50;;;2.20;;
4434;SDS011;46552;52.150;8.428;2023-04-01T02:14:01;7.53;;;3.30;;
4434;SDS011;46552;52.150;8.428;2023-04-01T02:16:33;5.37;;;2.20;;
4434;SDS011;46552;52.150;8.428;2023-04-01T02:19:04;6.77;;;2.60;;
4434;SDS011;46552;52.150;8.428;2023-04-01T02:21:33;4.83;;;1.93;;
4434;SDS011;46552;52.150;8.428;2023-04-01T02:24:05;3.47;;;1.77;;
4434;SDS011;46552;52.150;8.428;2023-04-01T02:26:35;5.60;;;2.00;;
4434;SDS011;46552;52.150;8.428;2023-04-01T02:29:03;7.87;;;2.03;;
4434;SDS011;46552;52.150;8.428;2023-04-01T02:31:32;4.20;;;1.40;;
4434;SDS011;46552;52.150;8.428;2023-04-01T02:34:00;4.70;;;1.30;;
4434;SDS011;46552;52.150;8.428;2023-04-01T02:36:27;7.03;;;2.40;;
4434;SDS011;46552;52.150;8.428;2023-04-01T02:38:55;5.60;;;1.40;;
4434;SDS011;46552;52.150;8.428;2023-04-01T02:41:28;4.60;;;1.97;;
4434;SDS011;46552;52.150;8.428;2023-04-01T02:43:56;4.00;;;1.90;;
4434;SDS011;46552;52.150;8.428;2023-04-01T02:46:24;4.30;;;1.80;;
4434;SDS011;46552;52.150;8.428;2023-04-01T02:48:51;3.67;;;1.60;;
4434;SDS011;46552;52.150;8.428;2023-04-01T02:51:19;4.60;;;1.90;;
4434;SDS011;46552;52.150;8.428;2023-04-01T02:53:47;5.57;;;1.97;;
4434;SDS011;46552;52.150;8.428;2023-04-01T02:56:14;7.83;;;1.73;;
4434;SDS011;46552;52.150;8.428;2023-04-01T02:58:44;3.57;;;2.03;;
4434;SDS011;46552;52.150;8.428;2023-04-01T03:01:11;5.70;;;2.20;;
4434;SDS011;46552;52.150;8.428;2023-04-01T03:03:38;4.90;;;1.43;;
4434;SDS011;46552;52.150;8.428;2023-04-01T03:06:06;3.40;;;1.20;;
4434;SDS011;46552;52.150;8.428;2023-04-01T03:08:35;7.40;;;2.50;;
4434;SDS011;46552;52.150;8.428;2023-04-01T03:11:02;9.57;;;1.73;;
4434;SDS011;46552;52.150;8.428;2023-04-01T03:13:30;4.70;;;1.50;;
4434;SDS011;46552;52.150;8.428;2023-04-01T03:15:59;3.43;;;1.40;;
4434;SDS011;46552;52.150;8.428;2023-04-01T03:18:26;3.93;;;1.60;;
4434;SDS011;46552;52.150;8.428;2023-04-01T03:20:53;2.20;;;1.10;;
4434;SDS011;46552;52.150;8.428;2023-04-01T03:23:21;4.73;;;1.43;;
4434;SDS011;46552;52.150;8.428;2023-04-01T03:25:49;2.97;;;1.40;;
4434;SDS011;46552;52.150;8.428;2023-04-01T03:28:17;4.17;;;1.17;;
4434;SDS011;46552;52.150;8.428;2023-04-01T03:30:44;3.47;;;1.23;;
4434;SDS011;46552;52.150;8.428;2023-04-01T03:33:15;5.07;;;1.20;;
4434;SDS011;46552;52.150;8.428;2023-04-01T03:35:43;3.13;;;1.47;;
4434;SDS011;46552;52.150;8.428;2023-04-01T03:38:12;3.27;;;1.60;;
4434;SDS011;46552;52.150;8.428;2023-04-01T03:40:41;5.33;;;1.70;;
4434;SDS011;46552;52.150;8.428;2023-04-01T03:43:09;8.10;;;1.60;;
4434;SDS011;46552;52.150;8.428;2023-04-01T03:45:40;3.70;;;1.30;;
4434;SDS011;46552;52.150;8.428;2023-04-01T03:48:10;2.70;;;1.40;;
4434;SDS011;46552;52.150;8.428;2023-04-01T03:50:39;7.67;;;1.83;;
4434;SDS011;46552;52.150;8.428;2023-04-01T03:53:06;6.03;;;1.50;;
4434;SDS011;46552;52.150;8.428;2023-04-01T03:55:35;3.83;;;2.20;;
4434;SDS011;46552;52.150;8.428;2023-04-01T03:58:02;3.73;;;1.40;;
4434;SDS011;46552;52.150;8.428;2023-04-01T04:00:30;3.20;;;1.67;;
4434;SDS011;46552;52.150;8.428;2023-04-01T04:02:57;2.43;;;1.23;;
4434;SDS011;46552;52.150;8.428;2023-04-01T04:05:25;5.13;;;1.67;;
4434;SDS011;46552;52.150;8.428;2023-04-01T04:07:54;3.60;;;1.40;;
4434;SDS011;46552;52.150;8.428;2023-04-01T04:10:21;4.13;;;1.30;;
4434;SDS011;46552;52.150;8.428;2023-04-01T04:12:50;13.20;;;2.20;;
4434;SDS011;46552;52.150;8.428;2023-04-01T04:15:18;3.03;;;1.60;;
4434;SDS011;46552;52.150;8.428;2023-04-01T04:17:45;3.47;;;1.20;;
4434;SDS011;46552;52.150;8.428;2023-04-01T04:20:13;3.87;;;1.47;;
4434;SDS011;46552;52.150;8.428;2023-04-01T04:22:40;2.83;;;1.47;;
4434;SDS011;46552;52.150;8.428;2023-04-01T04:25:09;3.57;;;1.70;;
4434;SDS011;46552;52.150;8.428;2023-04-01T04:27:37;3.70;;;1.40;;
4434;SDS011;46552;52.150;8.428;2023-04-01T04:30:05;4.50;;;1.50;;
4434;SDS011;46552;52.150;8.428;2023-04-01T04:32:34;2.53;;;1.10;;
4434;SDS011;46552;52.150;8.428;2023-04-01T04:35:01;5.53;;;2.90;;
4434;SDS011;46552;52.150;8.428;2023-04-01T04:37:31;4.87;;;1.70;;
4434;SDS011;46552;52.150;8.428;2023-04-01T04:39:58;3.80;;;1.80;;
4434;SDS011;46552;52.150;8.428;2023-04-01T04:42:27;6.47;;;2.00;;
4434;SDS011;46552;52.150;8.428;2023-04-01T04:44:54;4.00;;;2.37;;
4434;SDS011;46552;52.150;8.428;2023-04-01T04:47:22;4.20;;;2.07;;
4434;SDS011;46552;52.150;8.428;2023-04-01T04:49:50;3.30;;;1.43;;
4434;SDS011;46552;52.150;8.428;2023-04-01T04:52:17;3.90;;;1.40;;
4434;SDS011;46552;52.150;8.428;2023-04-01T04:54:44;4.43;;;1.77;;
4434;SDS011;46552;52.150;8.428;2023-04-01T04:57:11;6.13;;;1.87;;
4434;SDS011;46552;52.150;8.428;2023-04-01T04:59:41;3.70;;;1.00;;
4434;SDS011;46552;52.150;8.428;2023-04-01T05:02:09;4.03;;;1.37;;
4434;SDS011;46552;52.150;8.428;2023-04-01T05:04:36;2.23;;;1.20;;
4434;SDS011;46552;52.150;8.428;2023-04-01T05:07:03;3.03;;;1.47;;
4434;SDS011;46552;52.150;8.428;2023-04-01T05:09:31;3.40;;;2.00;;
4434;SDS011;46552;52.150;8.428;2023-04-01T05:11:58;4.43;;;1.70;;
4434;SDS011;46552;52.150;8.428;2023-04-01T05:14:26;2.80;;;1.17;;
4434;SDS011;46552;52.150;8.428;2023-04-01T05:16:55;4.70;;;1.10;;
4434;SDS011;46552;52.150;8.428;2023-04-01T05:19:22;3.73;;;1.50;;
4434;SDS011;46552;52.150;8.428;2023-04-01T05:21:49;3.17;;;1.70;;
4434;SDS011;46552;52.150;8.428;2023-04-01T05:24:17;2.57;;;1.40;;
4434;SDS011;46552;52.150;8.428;2023-04-01T05:26:45;2.67;;;1.30;;
4434;SDS011;46552;52.150;8.428;2023-04-01T05:29:12;3.77;;;1.70;;
4434;SDS011;46552;52.150;8.428;2023-04-01T05:31:39;4.37;;;1.50;;
4434;SDS011;46552;52.150;8.428;2023-04-01T05:34:08;4.50;;;1.33;;
4434;SDS011;46552;52.150;8.428;2023-04-01T05:36:35;4.20;;;1.40;;
4434;SDS011;46552;52.150;8.428;2023-04-01T05:39:03;4.90;;;1.23;;
4434;SDS011;46552;52.150;8.428;2023-04-01T05:41:30;3.00;;;1.30;;
4434;SDS011;46552;52.150;8.428;2023-04-01T05:43:57;3.00;;;1.67;;
4434;SDS011;46552;52.150;8.428;2023-04-01T05:46:26;2.63;;;1.20;;
4434;SDS011;46552;52.150;8.428;2023-04-01T05:48:54;5.50;;;2.03;;
4434;SDS011;46552;52.150;8.428;2023-04-01T05:51:23;3.83;;;1.60;;
4434;SDS011;46552;52.150;8.428;2023-04-01T05:53:50;4.03;;;1.80;;
4434;SDS011;46552;52.150;8.428;2023-04-01T05:56:18;3.60;;;1.50;;
4434;SDS011;46552;52.150;8.428;2023-04-01T05:58:46;5.27;;;1.37;;
4434;SDS011;46552;52.150;8.428;2023-04-01T06:01:18;5.70;;;1.90;;
4434;SDS011;46552;52.150;8.428;2023-04-01T06:03:45;4.00;;;1.80;;
4434;SDS011;46552;52.150;8.428;2023-04-01T06:06:14;2.93;;;1.63;;
4434;SDS011;46552;52.150;8.428;2023-04-01T06:08:43;3.37;;;1.70;;
4434;SDS011;46552;52.150;8.428;2023-04-01T06:11:15;4.13;;;1.90;;
4434;SDS011;46552;52.150;8.428;2023-04-01T06:13:52;3.37;;;1.90;;
4434;SDS011;46552;52.150;8.428;2023-04-01T06:16:33;3.27;;;1.97;;
4434;SDS011;46552;52.150;8.428;2023-04-01T06:19:13;4.37;;;2.30;;
4434;SDS011;46552;52.150;8.428;2023-04-01T06:21:59;4.63;;;1.67;;
4434;SDS011;46552;52.150;8.428;2023-04-01T06:24:56;7.97;;;1.80;;
4434;SDS011;46552;52.150;8.428;2023-04-01T06:27:37;4.00;;;1.60;;
4434;SDS011;46552;52.150;8.428;2023-04-01T06:30:24;2.70;;;1.10;;
4434;SDS011;46552;52.150;8.428;2023-04-01T06:33:05;3.83;;;1.27;;
4434;SDS011;46552;52.150;8.428;2023-04-01T06:35:49;4.20;;;1.90;;
4434;SDS011;46552;52.150;8.428;2023-04-01T06:38:30;5.00;;;1.63;;
4434;SDS011;46552;52.150;8.428;2023-04-01T06:41:42;2.60;;;1.50;;
4434;SDS011;46552;52.150;8.428;2023-04-01T06:44:37;2.27;;;1.23;;
4434;SDS011;46552;52.150;8.428;2023-04-01T06:47:20;2.37;;;1.17;;
4434;SDS011;46552;52.150;8.428;2023-04-01T06:49:56;3.57;;;1.80;;
4434;SDS011;46552;52.150;8.428;2023-04-01T06:52:32;2.50;;;1.47;;
4434;SDS011;46552;52.150;8.428;2023-04-01T06:55:12;3.20;;;1.53;;
4434;SDS011;46552;52.150;8.428;2023-04-01T06:57:54;2.87;;;1.57;;
4434;SDS011;46552;52.150;8.428;2023-04-01T07:00:27;6.07;;;1.30;;
4434;SDS011;46552;52.150;8.428;2023-04-01T07:03:00;3.73;;;1.80;;
4434;SDS011;46552;52.150;8.428;2023-04-01T07:05:33;3.13;;;1.40;;
4434;SDS011;46552;52.150;8.428;2023-04-01T07:08:02;4.70;;;1.70;;
4434;SDS011;46552;52.150;8.428;2023-04-01T07:10:35;4.50;;;1.47;;
4434;SDS011;46552;52.150;8.428;2023-04-01T07:13:13;3.53;;;1.60;;
4434;SDS011;46552;52.150;8.428;2023-04-01T07:15:54;2.80;;;1.63;;
4434;SDS011;46552;52.150;8.428;2023-04-01T07:18:29;4.23;;;3.10;;
4434;SDS011;46552;52.150;8.428;2023-04-01T07:20:57;4.00;;;2.10;;
4434;SDS011;46552;52.150;8.428;2023-04-01T07:23:26;2.37;;;1.10;;
4434;SDS011;46552;52.150;8.428;2023-04-01T07:25:55;3.77;;;1.70;;
4434;SDS011;46552;52.150;8.428;2023-04-01T07:28:26;4.30;;;2.03;;
4434;SDS011;46552;52.150;8.428;2023-04-01T07:30:58;2.90;;;1.40;;
4434;SDS011;46552;52.150;8.428;2023-04-01T07:33:28;3.67;;;2.07;;
4434;SDS011;46552;52.150;8.428;2023-04-01T07:35:58;4.57;;;1.30;;
4434;SDS011;46552;52.150;8.428;2023-04-01T07:38:31;5.07;;;2.07;;
4434;SDS011;46552;52.150;8.428;2023-04-01T07:41:06;3.07;;;1.90;;
4434;SDS011;46552;52.150;8.428;2023-04-01T07:43:43;3.10;;;1.87;;
4434;SDS011;46552;52.150;8.428;2023-04-01T07:46:22;3.00;;;1.40;;
4434;SDS011;46552;52.150;8.428;2023-04-01T07:49:01;5.60;;;2.70;;
4434;SDS011;46552;52.150;8.428;2023-04-01T07:51:35;4.93;;;2.23;;
4434;SDS011;46552;52.150;8.428;2023-04-01T07:54:08;3.07;;;1.83;;
4434;SDS011;46552;52.150;8.428;2023-04-01T07:56:40;4.50;;;1.90;;
4434;SDS011;46552;52.150;8.428;2023-04-01T07:59:14;6.40;;;3.03;;
4434;SDS011;46552;52.150;8.428;2023-04-01T08:01:50;5.27;;;2.90;;
4434;SDS011;46552;52.150;8.428;2023-04-01T08:04:33;3.53;;;1.80;;
4434;SDS011;46552;52.150;8.428;2023-04-01T08:07:14;3.63;;;1.97;;
4434;SDS011;46552;52.150;8.428;2023-04-01T08:09:45;19.93;;;4.53;;
4434;SDS011;46552;52.150;8.428;2023-04-01T08:12:21;5.40;;;2.80;;
4434;SDS011;46552;52.150;8.428;2023-04-01T08:15:03;6.77;;;3.93;;
4434;SDS011;46552;52.150;8.428;2023-04-01T08:17:40;8.23;;;3.87;;
4434;SDS011;46552;52.150;8.428;2023-04-01T08:20:14;7.57;;;3.97;;
4434;SDS011;46552;52.150;8.428;2023-04-01T08:22:53;6.10;;;3.40;;
4434;SDS011;46552;52.150;8.428;2023-04-01T08:25:26;5.13;;;3.30;;
4434;SDS011;46552;52.150;8.428;2023-04-01T08:27:56;6.10;;;3.30;;
4434;SDS011;46552;52.150;8.428;2023-04-01T08:30:33;5.80;;;3.20;;
4434;SDS011;46552;52.150;8.428;2023-04-01T08:33:04;4.77;;;2.93;;
4434;SDS011;46552;52.150;8.428;2023-04-01T08:35:38;6.40;;;3.50;;
4434;SDS011;46552;52.150;8.428;2023-04-01T08:38:10;4.97;;;3.13;;
4434;SDS011;46552;52.150;8.428;2023-04-01T08:40:51;5.23;;;2.80;;
4434;SDS011;46552;52.150;8.428;2023-04-01T08:43:48;4.60;;;2.60;;
4434;SDS011;46552;52.150;8.428;2023-04-01T08:49:35;5.70;;;3.40;;
4434;SDS011;46552;52.150;8.428;2023-04-01T08:52:11;6.60;;;3.43;;
4434;SDS011;46552;52.150;8.428;2023-04-01T08:54:54;5.60;;;3.40;;
4434;SDS011;46552;52.150;8.428;2023-04-01T08:57:25;5.27;;;3.10;;
4434;SDS011;46552;52.150;8.428;2023-04-01T09:00:01;14.07;;;3.07;;
4434;SDS011;46552;52.150;8.428;2023-04-01T09:02:42;6.80;;;2.60;;
4434;SDS011;46552;52.150;8.428;2023-04-01T09:05:33;4.93;;;3.07;;
4434;SDS011;46552;52.150;8.428;2023-04-01T09:08:08;5.80;;;2.60;;
4434;SDS011;46552;52.150;8.428;2023-04-01T09:13:43;4.80;;;2.60;;
4434;SDS011;46552;52.150;8.428;2023-04-01T09:16:38;5.50;;;2.70;;
4434;SDS011;46552;52.150;8.428;2023-04-01T09:19:25;6.87;;;2.90;;
4434;SDS011;46552;52.150;8.428;2023-04-01T09:22:18;4.63;;;2.50;;
4434;SDS011;46552;52.150;8.428;2023-04-01T09:25:06;6.53;;;3.37;;
4434;SDS011;46552;52.150;8.428;2023-04-01T09:27:54;5.40;;;2.90;;
4434;SDS011;46552;52.150;8.428;2023-04-01T09:30:29;5.20;;;3.07;;
4434;SDS011;46552;52.150;8.428;2023-04-01T09:36:25;5.83;;;3.27;;
4434;SDS011;46552;52.150;8.428;2023-04-01T09:39:03;6.50;;;3.27;;
4434;SDS011;46552;52.150;8.428;2023-04-01T09:42:06;5.00;;;3.27;;
4434;SDS011;46552;52.150;8.428;2023-04-01T09:44:41;4.33;;;2.40;;
4434;SDS011;46552;52.150;8.428;2023-04-01T09:47:23;5.63;;;2.80;;
4434;SDS011;46552;52.150;8.428;2023-04-01T09:50:14;4.73;;;3.03;;
4434;SDS011;46552;52.150;8.428;2023-04-01T09:52:55;4.97;;;3.10;;
4434;SDS011;46552;52.150;8.428;2023-04-01T10:01:40;7.77;;;4.37;;
4434;SDS011;46552;52.150;8.428;2023-04-01T10:10:42;5.20;;;2.70;;
4434;SDS011;46552;52.150;8.428;2023-04-01T10:13:49;3.60;;;2.07;;
4434;SDS011;46552;52.150;8.428;2023-04-01T10:16:43;4.50;;;3.03;;
4434;SDS011;46552;52.150;8.428;2023-04-01T10:19:43;4.07;;;2.37;;
4434;SDS011;46552;52.150;8.428;2023-04-01T10:22:29;8.50;;;2.13;;
4434;SDS011;46552;52.150;8.428;2023-04-01T10:25:03;4.40;;;2.00;;
4434;SDS011;46552;52.150;8.428;2023-04-01T10:27:36;2.43;;;1.23;;
4434;SDS011;46552;52.150;8.428;2023-04-01T10:33:49;3.80;;;2.00;;
4434;SDS011;46552;52.150;8.428;2023-04-01T10:36:50;5.60;;;2.10;;
4434;SDS011;46552;52.150;8.428;2023-04-01T10:42:47;4.00;;;1.90;;
4434;SDS011;46552;52.150;8.428;2023-04-01T10:45:45;3.07;;;1.83;;
4434;SDS011;46552;52.150;8.428;2023-04-01T10:48:39;4.07;;;1.87;;
4434;SDS011;46552;52.150;8.428;2023-04-01T10:51:12;5.30;;;2.10;;
4434;SDS011;46552;52.150;8.428;2023-04-01T10:53:49;3.10;;;1.90;;
4434;SDS011;46552;52.150;8.428;2023-04-01T10:56:46;3.33;;;1.70;;
4434;SDS011;46552;52.150;8.428;2023-04-01T10:59:40;3.43;;;1.90;;
4434;SDS011;46552;52.150;8.428;2023-04-01T11:02:17;3.23;;;2.00;;
4434;SDS011;46552;52.150;8.428;2023-04-01T11:11:55;3.97;;;2.13;;
4434;SDS011;46552;52.150;8.428;2023-04-01T11:14:42;3.60;;;2.23;;
4434;SDS011;46552;52.150;8.428;2023-04-01T11:17:33;4.70;;;2.00;;
4434;SDS011;46552;52.150;8.428;2023-04-01T11:20:39;9.80;;;1.93;;
4434;SDS011;46552;52.150;8.428;2023-04-01T11:23:22;6.17;;;2.77;;
4434;SDS011;46552;52.150;8.428;2023-04-01T11:26:02;20.73;;;3.93;;
4434;SDS011;46552;52.150;8.428;2023-04-01T11:28:48;3.70;;;2.10;;
4434;SDS011;46552;52.150;8.428;2023-04-01T11:31:39;4.03;;;2.03;;
4434;SDS011;46552;52.150;8.428;2023-04-01T11:34:24;4.67;;;2.40;;
4434;SDS011;46552;52.150;8.428;2023-04-01T11:37:12;3.00;;;1.60;;
4434;SDS011;46552;52.150;8.428;2023-04-01T11:39:56;3.13;;;1.60;;
4434;SDS011;46552;52.150;8.428;2023-04-01T11:42:32;2.97;;;1.20;;
4434;SDS011;46552;52.150;8.428;2023-04-01T11:45:06;3.83;;;1.70;;
4434;SDS011;46552;52.150;8.428;2023-04-01T11:47:47;3.20;;;1.33;;
4434;SDS011;46552;52.150;8.428;2023-04-01T11:50:27;3.13;;;1.30;;
4434;SDS011;46552;52.150;8.428;2023-04-01T11:53:01;4.80;;;2.70;;
4434;SDS011;46552;52.150;8.428;2023-04-01T11:55:47;6.03;;;2.53;;
4434;SDS011;46552;52.150;8.428;2023-04-01T11:58:36;9.40;;;4.33;;
4434;SDS011;46552;52.150;8.428;2023-04-01T12:01:20;7.07;;;4.00;;
4434;SDS011;46552;52.150;8.428;2023-04-01T12:07:14;3.87;;;2.00;;
4434;SDS011;46552;52.150;8.428;2023-04-01T12:09:45;3.33;;;1.70;;
4434;SDS011;46552;52.150;8.428;2023-04-01T12:12:20;2.73;;;1.50;;
4434;SDS011;46552;52.150;8.428;2023-04-01T12:14:54;3.27;;;1.70;;
4434;SDS011;46552;52.150;8.428;2023-04-01T12:17:34;2.80;;;1.47;;
4434;SDS011;46552;52.150;8.428;2023-04-01T12:20:20;3.13;;;1.90;;
4434;SDS011;46552;52.150;8.428;2023-04-01T12:22:57;3.63;;;1.87;;
4434;SDS011;46552;52.150;8.428;2023-04-01T12:25:47;3.27;;;2.10;;
4434;SDS011;46552;52.150;8.428;2023-04-01T12:28:19;3.20;;;1.67;;
4434;SDS011;46552;52.150;8.428;2023-04-01T12:31:06;3.93;;;2.10;;
4434;SDS011;46552;52.150;8.428;2023-04-01T12:33:51;3.90;;;2.40;;
4434;SDS011;46552;52.150;8.428;2023-04-01T12:36:28;4.57;;;2.40;;
4434;SDS011;46552;52.150;8.428;2023-04-01T12:42:01;4.03;;;2.13;;
4434;SDS011;46552;52.150;8.428;2023-04-01T12:44:41;4.77;;;2.50;;
4434;SDS011;46552;52.150;8.428;2023-04-01T12:47:40;3.77;;;2.40;;
4434;SDS011;46552;52.150;8.428;2023-04-01T12:50:28;3.77;;;2.03;;
4434;SDS011;46552;52.150;8.428;2023-04-01T12:53:15;3.47;;;2.20;;
4434;SDS011;46552;52.150;8.428;2023-04-01T12:56:01;4.70;;;2.77;;
4434;SDS011;46552;52.150;8.428;2023-04-01T13:04:31;4.50;;;2.80;;
4434;SDS011;46552;52.150;8.428;2023-04-01T13:07:26;6.70;;;3.30;;
4434;SDS011;46552;52.150;8.428;2023-04-01T13:09:57;5.30;;;2.50;;
4434;SDS011;46552;52.150;8.428;2023-04-01T13:12:34;4.70;;;2.83;;
4434;SDS011;46552;52.150;8.428;2023-04-01T13:15:13;4.67;;;3.20;;
4434;SDS011;46552;52.150;8.428;2023-04-01T13:17:50;3.87;;;2.43;;
4434;SDS011;46552;52.150;8.428;2023-04-01T13:20:28;5.97;;;3.13;;
4434;SDS011;46552;52.150;8.428;2023-04-01T13:23:11;5.97;;;3.60;;
4434;SDS011;46552;52.150;8.428;2023-04-01T13:25:43;5.43;;;3.40;;
4434;SDS011;46552;52.150;8.428;2023-04-01T13:28:17;8.73;;;4.47;;
4434;SDS011;46552;52.150;8.428;2023-04-01T13:30:53;5.10;;;3.50;;
4434;SDS011;46552;52.150;8.428;2023-04-01T13:33:25;4.63;;;2.60;;
4434;SDS011;46552;52.150;8.428;2023-04-01T13:36:03;5.50;;;2.97;;
4434;SDS011;46552;52.150;8.428;2023-04-01T13:38:41;4.77;;;3.00;;
4434;SDS011;46552;52.150;8.428;2023-04-01T13:41:25;4.80;;;2.23;;
4434;SDS011;46552;52.150;8.428;2023-04-01T13:44:09;5.07;;;3.00;;
4434;SDS011;46552;52.150;8.428;2023-04-01T13:46:45;3.80;;;2.17;;
4434;SDS011;46552;52.150;8.428;2023-04-01T13:49:35;3.00;;;1.63;;
4434;SDS011;46552;52.150;8.428;2023-04-01T13:52:19;4.00;;;2.20;;
4434;SDS011;46552;52.150;8.428;2023-04-01T13:54:58;5.70;;;3.40;;
4434;SDS011;46552;52.150;8.428;2023-04-01T13:57:43;5.67;;;3.50;;
4434;SDS011;46552;52.150;8.428;2023-04-01T14:00:27;4.83;;;3.23;;
4434;SDS011;46552;52.150;8.428;2023-04-01T14:03:13;5.00;;;3.10;;
4434;SDS011;46552;52.150;8.428;2023-04-01T14:06:12;5.20;;;3.37;;
4434;SDS011;46552;52.150;8.428;2023-04-01T14:08:58;4.90;;;3.00;;
4434;SDS011;46552;52.150;8.428;2023-04-01T14:11:52;6.47;;;3.60;;
4434;SDS011;46552;52.150;8.428;2023-04-01T14:14:22;6.50;;;3.63;;
4434;SDS011;46552;52.150;8.428;2023-04-01T14:19:51;5.03;;;3.50;;
4434;SDS011;46552;52.150;8.428;2023-04-01T14:22:34;5.30;;;3.27;;
4434;SDS011;46552;52.150;8.428;2023-04-01T14:25:25;3.50;;;2.20;;
4434;SDS011;46552;52.150;8.428;2023-04-01T14:28:23;3.90;;;2.57;;
4434;SDS011;46552;52.150;8.428;2023-04-01T14:34:04;2.93;;;1.57;;
4434;SDS011;46552;52.150;8.428;2023-04-01T14:36:46;5.33;;;2.87;;
4434;SDS011;46552;52.150;8.428;2023-04-01T14:39:26;4.20;;;2.60;;
4434;SDS011;46552;52.150;8.428;2023-04-01T14:42:20;3.07;;;2.27;;
4434;SDS011;46552;52.150;8.428;2023-04-01T14:45:02;3.70;;;1.50;;
4434;SDS011;46552;52.150;8.428;2023-04-01T14:47:53;2.93;;;1.17;;
4434;SDS011;46552;52.150;8.428;2023-04-01T14:50:23;5.70;;;1.87;;
4434;SDS011;46552;52.150;8.428;2023-04-01T14:53:10;4.00;;;1.90;;
4434;SDS011;46552;52.150;8.428;2023-04-01T14:55:45;5.00;;;1.67;;
4434;SDS011;46552;52.150;8.428;2023-04-01T14:58:17;3.57;;;2.00;;
4434;SDS011;46552;52.150;8.428;2023-04-01T15:00:58;13.60;;;2.17;;
4434;SDS011;46552;52.150;8.428;2023-04-01T15:03:36;3.43;;;1.70;;
4434;SDS011;46552;52.150;8.428;2023-04-01T15:06:19;3.70;;;1.70;;
4434;SDS011;46552;52.150;8.428;2023-04-01T15:09:03;2.80;;;1.50;;
4434;SDS011;46552;52.150;8.428;2023-04-01T15:11:42;5.73;;;1.50;;
4434;SDS011;46552;52.150;8.428;2023-04-01T15:14:24;2.63;;;1.37;;
4434;SDS011;46552;52.150;8.428;2023-04-01T15:17:05;2.30;;;1.13;;
4434;SDS011;46552;52.150;8.428;2023-04-01T15:19:53;3.07;;;1.70;;
4434;SDS011;46552;52.150;8.428;2023-04-01T15:22:39;3.53;;;1.83;;
4434;SDS011;46552;52.150;8.428;2023-04-01T15:25:21;2.97;;;1.60;;
4434;SDS011;46552;52.150;8.428;2023-04-01T15:27:57;6.03;;;1.77;;
4434;SDS011;46552;52.150;8.428;2023-04-01T15:30:34;3.90;;;2.13;;
4434;SDS011;46552;52.150;8.428;2023-04-01T15:33:13;3.20;;;1.90;;
4434;SDS011;46552;52.150;8.428;2023-04-01T15:35:57;4.43;;;2.00;;
4434;SDS011;46552;52.150;8.428;2023-04-01T15:38:30;7.53;;;2.27;;
4434;SDS011;46552;52.150;8.428;2023-04-01T15:41:03;4.03;;;2.17;;
4434;SDS011;46552;52.150;8.428;2023-04-01T15:43:40;3.63;;;2.10;;
4434;SDS011;46552;52.150;8.428;2023-04-01T15:46:14;3.80;;;2.33;;
4434;SDS011;46552;52.150;8.428;2023-04-01T15:49:20;3.53;;;2.40;;
4434;SDS011;46552;52.150;8.428;2023-04-01T15:52:03;6.30;;;3.03;;
4434;SDS011;46552;52.150;8.428;2023-04-01T15:57:30;3.47;;;1.33;;
4434;SDS011;46552;52.150;8.428;2023-04-01T16:00:09;3.57;;;1.40;;
4434;SDS011;46552;52.150;8.428;2023-04-01T16:02:48;2.30;;;1.10;;
4434;SDS011;46552;52.150;8.428;2023-04-01T16:05:32;2.70;;;1.30;;
4434;SDS011;46552;52.150;8.428;2023-04-01T16:08:09;3.77;;;2.00;;
4434;SDS011;46552;52.150;8.428;2023-04-01T16:11:12;3.67;;;1.67;;
4434;SDS011;46552;52.150;8.428;2023-04-01T16:13:57;5.37;;;1.80;;
4434;SDS011;46552;52.150;8.428;2023-04-01T16:16:42;3.33;;;1.30;;
4434;SDS011;46552;52.150;8.428;2023-04-01T16:19:32;3.43;;;1.20;;
4434;SDS011;46552;52.150;8.428;2023-04-01T16:22:01;2.50;;;0.90;;
4434;SDS011;46552;52.150;8.428;2023-04-01T16:24:34;2.10;;;1.00;;
4434;SDS011;46552;52.150;8.428;2023-04-01T16:27:04;2.73;;;1.40;;
4434;SDS011;46552;52.150;8.428;2023-04-01T16:29:40;3.17;;;1.30;;
4434;SDS011;46552;52.150;8.428;2023-04-01T16:32:21;2.67;;;0.97;;
4434;SDS011;46552;52.150;8.428;2023-04-01T16:38:08;3.73;;;1.63;;
4434;SDS011;46552;52.150;8.428;2023-04-01T16:40:42;3.57;;;2.20;;
4434;SDS011;46552;52.150;8.428;2023-04-01T16:43:16;3.27;;;1.67;;
4434;SDS011;46552;52.150;8.428;2023-04-01T16:45:51;3.87;;;2.50;;
4434;SDS011;46552;52.150;8.428;2023-04-01T16:48:25;2.70;;;1.60;;
4434;SDS011;46552;52.150;8.428;2023-04-01T16:51:01;7.60;;;2.40;;
4434;SDS011;46552;52.150;8.428;2023-04-01T16:53:37;4.50;;;2.40;;
4434;SDS011;46552;52.150;8.428;2023-04-01T16:56:10;3.90;;;1.87;;